createdAt,value
2017-10-23T00:00:08.049Z,9.83
2017-10-23T00:00:16.444Z,9.83
2017-10-23T00:00:24.327Z,9.83
2017-10-23T00:00:32.484Z,9.83
2017-10-23T00:00:40.608Z,9.83
2017-10-23T00:00:48.748Z,9.82
2017-10-23T00:00:56.889Z,9.81
2017-10-23T00:01:06.641Z,9.80
2017-10-23T00:01:14.759Z,9.81
2017-10-23T00:01:22.900Z,9.81
2017-10-23T00:01:37.651Z,9.81
2017-10-23T00:01:45.574Z,9.81
2017-10-23T00:01:53.719Z,9.81
2017-10-23T00:02:01.857Z,9.80
2017-10-23T00:02:09.977Z,9.81
2017-10-23T00:02:18.135Z,9.81
2017-10-23T00:02:26.261Z,9.80
2017-10-23T00:02:34.413Z,9.80
2017-10-23T00:02:42.536Z,9.81
2017-10-23T00:02:50.668Z,9.79
2017-10-23T00:02:58.813Z,9.80
2017-10-23T00:03:06.956Z,9.80
2017-10-23T00:03:15.092Z,9.80
2017-10-23T00:03:23.221Z,9.79
2017-10-23T00:03:31.360Z,9.79
2017-10-23T00:03:39.504Z,9.79
2017-10-23T00:03:47.641Z,9.78
2017-10-23T00:03:55.787Z,9.79
2017-10-23T00:04:03.910Z,9.80
2017-10-23T00:04:12.049Z,9.79
2017-10-23T00:04:20.180Z,9.79
2017-10-23T00:04:28.316Z,9.80
2017-10-23T00:04:36.464Z,9.80
2017-10-23T00:04:44.636Z,9.80
2017-10-23T00:04:52.736Z,9.79
2017-10-23T00:05:00.873Z,9.78
2017-10-23T00:05:09.008Z,9.78
2017-10-23T00:05:17.148Z,9.78
2017-10-23T00:05:25.302Z,9.79
2017-10-23T00:05:33.436Z,9.79
2017-10-23T00:05:41.561Z,9.78
2017-10-23T00:05:49.694Z,9.76
2017-10-23T00:05:57.841Z,9.78
2017-10-23T00:06:07.582Z,9.78
2017-10-23T00:06:15.712Z,9.77
2017-10-23T00:06:23.852Z,9.77
2017-10-23T00:06:31.989Z,9.78
2017-10-23T00:06:40.155Z,9.77
2017-10-23T00:06:48.271Z,9.77
2017-10-23T00:06:56.408Z,9.78
2017-10-23T00:07:04.536Z,9.77
2017-10-23T00:07:12.667Z,9.77
2017-10-23T00:07:20.813Z,9.77
2017-10-23T00:07:28.968Z,9.77
2017-10-23T00:07:37.094Z,9.77
2017-10-23T00:07:45.226Z,9.77
2017-10-23T00:07:53.356Z,9.77
2017-10-23T00:08:01.496Z,9.77
2017-10-23T00:08:09.632Z,9.77
2017-10-23T00:08:17.783Z,9.77
2017-10-23T00:08:25.925Z,9.77
2017-10-23T00:08:34.045Z,9.78
2017-10-23T00:08:42.180Z,9.77
2017-10-23T00:08:50.327Z,9.77
2017-10-23T00:08:58.478Z,9.77
2017-10-23T00:09:06.608Z,9.77
2017-10-23T00:09:14.744Z,9.78
2017-10-23T00:09:22.877Z,9.77
2017-10-23T00:09:31.016Z,9.77
2017-10-23T00:09:39.152Z,9.77
2017-10-23T00:09:47.280Z,9.77
2017-10-23T00:09:55.431Z,9.77
2017-10-23T00:10:03.569Z,9.77
2017-10-23T00:10:11.700Z,9.79
2017-10-23T00:10:19.835Z,9.78
2017-10-23T00:10:27.977Z,9.78
2017-10-23T00:10:36.107Z,9.77
2017-10-23T00:10:44.259Z,9.78
2017-10-23T00:10:52.396Z,9.78
2017-10-23T00:11:00.530Z,9.78
2017-10-23T00:11:08.656Z,9.78
2017-10-23T00:11:16.796Z,9.78
2017-10-23T00:11:24.950Z,9.77
2017-10-23T00:11:33.099Z,9.77
2017-10-23T00:11:41.235Z,9.77
2017-10-23T00:11:49.356Z,9.77
2017-10-23T00:11:57.493Z,9.78
2017-10-23T00:12:05.620Z,9.78
2017-10-23T00:12:13.779Z,9.78
2017-10-23T00:12:21.912Z,9.77
2017-10-23T00:12:30.049Z,9.79
2017-10-23T00:12:38.176Z,9.77
2017-10-23T00:12:46.321Z,9.77
2017-10-23T00:12:54.445Z,9.77
2017-10-23T00:13:02.615Z,9.78
2017-10-23T00:13:10.740Z,9.77
2017-10-23T00:13:18.874Z,9.78
2017-10-23T00:13:27.001Z,9.77
2017-10-23T00:13:35.336Z,9.78
2017-10-23T00:13:43.272Z,9.77
2017-10-23T00:13:51.421Z,9.78
2017-10-23T00:13:59.564Z,9.77
2017-10-23T00:14:07.702Z,9.77
2017-10-23T00:14:15.869Z,9.77
2017-10-23T00:14:23.977Z,9.78
2017-10-23T00:14:32.106Z,9.78
2017-10-23T00:14:40.251Z,9.78
2017-10-23T00:14:48.388Z,9.79
2017-10-23T00:14:56.533Z,9.78
2017-10-23T00:15:04.664Z,9.79
2017-10-23T00:15:12.791Z,9.78
2017-10-23T00:15:20.932Z,9.78
2017-10-23T00:15:29.071Z,9.78
2017-10-23T00:15:37.217Z,9.78
2017-10-23T00:15:45.360Z,9.78
2017-10-23T00:15:53.479Z,9.78
2017-10-23T00:16:01.804Z,9.78
2017-10-23T00:16:09.757Z,9.78
2017-10-23T00:16:17.905Z,9.77
2017-10-23T00:16:26.057Z,9.78
2017-10-23T00:16:34.177Z,9.78
2017-10-23T00:16:42.336Z,9.78
2017-10-23T00:16:50.445Z,9.77
2017-10-23T00:16:58.583Z,9.78
2017-10-23T00:17:06.723Z,9.77
2017-10-23T00:17:14.869Z,9.78
2017-10-23T00:17:23.013Z,9.77
2017-10-23T00:17:31.124Z,9.78
2017-10-23T00:17:39.271Z,9.77
2017-10-23T00:17:47.411Z,9.78
2017-10-23T00:17:55.542Z,9.77
2017-10-23T00:18:03.683Z,9.76
2017-10-23T00:18:11.824Z,9.77
2017-10-23T00:18:19.960Z,9.77
2017-10-23T00:18:28.091Z,9.77
2017-10-23T00:18:36.230Z,9.76
2017-10-23T00:18:44.370Z,9.76
2017-10-23T00:18:52.511Z,9.77
2017-10-23T00:19:00.645Z,9.77
2017-10-23T00:19:08.783Z,9.77
2017-10-23T00:19:16.917Z,9.77
2017-10-23T00:19:25.048Z,9.77
2017-10-23T00:19:33.196Z,9.76
2017-10-23T00:19:41.331Z,9.76
2017-10-23T00:19:49.467Z,9.76
2017-10-23T00:19:57.613Z,9.77
2017-10-23T00:20:05.732Z,9.77
2017-10-23T00:20:13.871Z,9.77
2017-10-23T00:20:22.232Z,9.76
2017-10-23T00:20:30.156Z,9.77
2017-10-23T00:20:38.296Z,9.76
2017-10-23T00:20:46.440Z,9.76
2017-10-23T00:20:54.565Z,9.76
2017-10-23T00:21:02.700Z,9.77
2017-10-23T00:21:10.845Z,9.76
2017-10-23T00:21:18.988Z,9.76
2017-10-23T00:21:27.127Z,9.77
2017-10-23T00:21:35.260Z,9.76
2017-10-23T00:21:43.483Z,9.77
2017-10-23T00:21:51.530Z,9.77
2017-10-23T00:21:59.673Z,9.77
2017-10-23T00:22:07.808Z,9.77
2017-10-23T00:22:15.960Z,9.76
2017-10-23T00:22:24.080Z,9.77
2017-10-23T00:22:32.215Z,9.77
2017-10-23T00:22:40.408Z,9.77
2017-10-23T00:22:48.496Z,9.77
2017-10-23T00:22:56.632Z,9.77
2017-10-23T00:23:04.772Z,9.78
2017-10-23T00:23:12.916Z,9.77
2017-10-23T00:23:21.036Z,9.78
2017-10-23T00:23:29.188Z,9.77
2017-10-23T00:23:37.325Z,9.77
2017-10-23T00:23:45.481Z,9.78
2017-10-23T00:23:53.604Z,9.77
2017-10-23T00:24:01.741Z,9.77
2017-10-23T00:24:16.283Z,9.75
2017-10-23T00:24:24.422Z,9.77
2017-10-23T00:24:32.545Z,9.76
2017-10-23T00:24:40.681Z,9.77
2017-10-23T00:24:48.825Z,9.76
2017-10-23T00:24:56.955Z,9.77
2017-10-23T00:25:05.096Z,9.75
2017-10-23T00:25:13.245Z,9.76
2017-10-23T00:25:21.364Z,9.75
2017-10-23T00:25:29.513Z,9.77
2017-10-23T00:25:37.639Z,9.76
2017-10-23T00:25:45.780Z,9.76
2017-10-23T00:25:53.921Z,9.77
2017-10-23T00:26:02.060Z,9.76
2017-10-23T00:26:10.188Z,9.74
2017-10-23T00:26:18.324Z,9.75
2017-10-23T00:26:26.465Z,9.75
2017-10-23T00:26:34.626Z,9.75
2017-10-23T00:26:42.752Z,9.76
2017-10-23T00:26:50.900Z,9.75
2017-10-23T00:26:59.023Z,9.76
2017-10-23T00:27:07.160Z,9.76
2017-10-23T00:27:15.296Z,9.75
2017-10-23T00:27:23.440Z,9.75
2017-10-23T00:27:31.569Z,9.75
2017-10-23T00:27:39.707Z,9.76
2017-10-23T00:27:47.850Z,9.75
2017-10-23T00:27:55.988Z,9.76
2017-10-23T00:28:04.116Z,9.75
2017-10-23T00:28:12.262Z,9.74
2017-10-23T00:28:20.397Z,9.75
2017-10-23T00:28:28.539Z,9.75
2017-10-23T00:28:36.672Z,9.75
2017-10-23T00:28:44.813Z,9.75
2017-10-23T00:28:52.944Z,9.75
2017-10-23T00:29:01.084Z,9.73
2017-10-23T00:29:09.217Z,9.76
2017-10-23T00:29:17.365Z,9.75
2017-10-23T00:29:25.505Z,9.75
2017-10-23T00:29:33.629Z,9.75
2017-10-23T00:29:43.375Z,9.75
2017-10-23T00:29:51.513Z,9.76
2017-10-23T00:29:59.645Z,9.75
2017-10-23T00:30:07.776Z,9.76
2017-10-23T00:30:15.929Z,9.76
2017-10-23T00:30:24.055Z,9.75
2017-10-23T00:30:32.199Z,9.76
2017-10-23T00:30:40.333Z,9.77
2017-10-23T00:30:48.499Z,9.77
2017-10-23T00:30:56.599Z,9.76
2017-10-23T00:31:04.736Z,9.77
2017-10-23T00:31:12.875Z,9.77
2017-10-23T00:31:21.024Z,9.77
2017-10-23T00:31:29.156Z,9.77
2017-10-23T00:31:37.296Z,9.76
2017-10-23T00:31:45.421Z,9.77
2017-10-23T00:31:53.572Z,9.76
2017-10-23T00:32:01.702Z,9.77
2017-10-23T00:32:09.857Z,9.75
2017-10-23T00:32:17.980Z,9.76
2017-10-23T00:32:26.112Z,9.76
2017-10-23T00:32:34.260Z,9.76
2017-10-23T00:32:42.396Z,9.77
2017-10-23T00:32:50.536Z,9.76
2017-10-23T00:32:58.676Z,9.75
2017-10-23T00:33:06.816Z,9.75
2017-10-23T00:33:14.941Z,9.75
2017-10-23T00:33:23.083Z,9.76
2017-10-23T00:33:31.217Z,9.76
2017-10-23T00:33:39.359Z,9.76
2017-10-23T00:33:47.505Z,9.76
2017-10-23T00:33:55.640Z,9.77
2017-10-23T00:34:03.768Z,9.76
2017-10-23T00:34:11.916Z,9.76
2017-10-23T00:34:20.041Z,9.76
2017-10-23T00:34:28.204Z,9.76
2017-10-23T00:34:36.328Z,9.76
2017-10-23T00:34:44.464Z,9.77
2017-10-23T00:34:52.614Z,9.77
2017-10-23T00:35:00.975Z,9.77
2017-10-23T00:35:08.872Z,9.77
2017-10-23T00:35:17.008Z,9.76
2017-10-23T00:35:25.153Z,9.76
2017-10-23T00:35:33.288Z,9.77
2017-10-23T00:35:41.421Z,9.76
2017-10-23T00:35:49.560Z,9.77
2017-10-23T00:35:57.700Z,9.76
2017-10-23T00:36:05.833Z,9.76
2017-10-23T00:36:13.975Z,9.77
2017-10-23T00:36:22.106Z,9.77
2017-10-23T00:36:30.240Z,9.77
2017-10-23T00:36:38.379Z,9.77
2017-10-23T00:36:46.520Z,9.78
2017-10-23T00:36:54.864Z,9.77
2017-10-23T00:37:02.808Z,9.77
2017-10-23T00:37:10.941Z,9.77
2017-10-23T00:37:19.124Z,9.77
2017-10-23T00:37:27.207Z,9.78
2017-10-23T00:37:35.341Z,9.76
2017-10-23T00:37:43.479Z,9.76
2017-10-23T00:37:51.628Z,9.77
2017-10-23T00:37:59.760Z,9.77
2017-10-23T00:38:07.943Z,9.77
2017-10-23T00:38:16.030Z,9.77
2017-10-23T00:38:24.163Z,9.77
2017-10-23T00:38:32.308Z,9.77
2017-10-23T00:38:40.465Z,9.77
2017-10-23T00:38:48.577Z,9.77
2017-10-23T00:38:56.721Z,9.77
2017-10-23T00:39:04.860Z,9.78
2017-10-23T00:39:13.000Z,9.77
2017-10-23T00:39:21.136Z,9.77
2017-10-23T00:39:29.283Z,9.77
2017-10-23T00:39:37.404Z,9.77
2017-10-23T00:39:45.545Z,9.77
2017-10-23T00:39:53.681Z,9.77
2017-10-23T00:40:01.825Z,9.77
2017-10-23T00:40:09.960Z,9.77
2017-10-23T00:40:18.100Z,9.77
2017-10-23T00:40:26.248Z,9.77
2017-10-23T00:40:34.376Z,9.77
2017-10-23T00:40:42.505Z,9.77
2017-10-23T00:40:50.641Z,9.77
2017-10-23T00:40:58.988Z,9.77
2017-10-23T00:41:06.924Z,9.77
2017-10-23T00:41:15.061Z,9.77
2017-10-23T00:41:23.204Z,9.77
2017-10-23T00:41:31.333Z,9.77
2017-10-23T00:41:39.471Z,9.78
2017-10-23T00:41:47.604Z,9.77
2017-10-23T00:41:55.776Z,9.78
2017-10-23T00:42:03.889Z,9.77
2017-10-23T00:42:12.024Z,9.78
2017-10-23T00:42:20.152Z,9.78
2017-10-23T00:42:28.290Z,9.77
2017-10-23T00:42:36.424Z,9.77
2017-10-23T00:42:44.577Z,9.77
2017-10-23T00:42:52.709Z,9.77
2017-10-23T00:43:00.840Z,9.77
2017-10-23T00:43:08.992Z,9.77
2017-10-23T00:43:17.115Z,9.76
2017-10-23T00:43:25.253Z,9.77
2017-10-23T00:43:33.404Z,9.77
2017-10-23T00:43:41.521Z,9.78
2017-10-23T00:43:49.666Z,9.78
2017-10-23T00:43:57.799Z,9.78
2017-10-23T00:44:05.932Z,9.78
2017-10-23T00:44:14.085Z,9.77
2017-10-23T00:44:22.220Z,9.77
2017-10-23T00:44:30.349Z,9.77
2017-10-23T00:44:44.888Z,9.78
2017-10-23T00:44:53.037Z,9.76
2017-10-23T00:45:07.929Z,9.77
2017-10-23T00:45:16.736Z,9.77
2017-10-23T00:45:24.877Z,9.77
2017-10-23T00:45:33.009Z,9.77
2017-10-23T00:45:41.149Z,9.77
2017-10-23T00:45:49.284Z,9.77
2017-10-23T00:45:57.412Z,9.76
2017-10-23T00:46:05.552Z,9.77
2017-10-23T00:46:13.710Z,9.78
2017-10-23T00:46:21.844Z,9.78
2017-10-23T00:46:29.973Z,9.77
2017-10-23T00:46:38.111Z,9.77
2017-10-23T00:46:46.242Z,9.78
2017-10-23T00:46:54.380Z,9.78
2017-10-23T00:47:02.533Z,9.77
2017-10-23T00:47:10.664Z,9.77
2017-10-23T00:47:18.797Z,9.78
2017-10-23T00:47:26.927Z,9.78
2017-10-23T00:47:35.068Z,9.77
2017-10-23T00:47:43.389Z,9.77
2017-10-23T00:47:51.352Z,9.77
2017-10-23T00:47:59.493Z,9.77
2017-10-23T00:48:07.619Z,9.77
2017-10-23T00:48:15.752Z,9.78
2017-10-23T00:48:23.892Z,9.79
2017-10-23T00:48:32.028Z,9.79
2017-10-23T00:48:40.176Z,9.78
2017-10-23T00:48:48.320Z,9.79
2017-10-23T00:48:56.448Z,9.79
2017-10-23T00:49:04.592Z,9.79
2017-10-23T00:49:12.721Z,9.78
2017-10-23T00:49:20.859Z,9.78
2017-10-23T00:49:29.013Z,9.79
2017-10-23T00:49:44.774Z,9.79
2017-10-23T00:49:52.863Z,9.79
2017-10-23T00:50:01.009Z,9.79
2017-10-23T00:50:09.140Z,9.78
2017-10-23T00:50:17.263Z,9.79
2017-10-23T00:50:25.397Z,9.79
2017-10-23T00:50:33.544Z,9.79
2017-10-23T00:50:41.690Z,9.79
2017-10-23T00:50:49.834Z,9.79
2017-10-23T00:50:57.969Z,9.79
2017-10-23T00:51:06.085Z,9.79
2017-10-23T00:51:14.232Z,9.80
2017-10-23T00:51:22.372Z,9.80
2017-10-23T00:51:30.512Z,9.80
2017-10-23T00:51:38.656Z,9.80
2017-10-23T00:51:46.780Z,9.80
2017-10-23T00:51:54.912Z,9.81
2017-10-23T00:52:03.080Z,9.80
2017-10-23T00:52:11.188Z,9.80
2017-10-23T00:52:19.340Z,9.80
2017-10-23T00:52:27.473Z,9.79
2017-10-23T00:52:35.612Z,9.79
2017-10-23T00:52:43.737Z,9.79
2017-10-23T00:52:51.888Z,9.80
2017-10-23T00:53:00.011Z,9.80
2017-10-23T00:53:08.170Z,9.80
2017-10-23T00:53:16.298Z,9.79
2017-10-23T00:53:24.429Z,9.79
2017-10-23T00:53:32.560Z,9.80
2017-10-23T00:53:40.716Z,9.79
2017-10-23T00:53:48.841Z,9.79
2017-10-23T00:53:56.980Z,9.80
2017-10-23T00:54:05.127Z,9.80
2017-10-23T00:54:13.265Z,9.79
2017-10-23T00:54:21.401Z,9.80
2017-10-23T00:54:29.535Z,9.80
2017-10-23T00:54:37.667Z,9.80
2017-10-23T00:54:45.813Z,9.81
2017-10-23T00:54:53.956Z,9.80
2017-10-23T00:55:02.078Z,9.80
2017-10-23T00:55:10.229Z,9.81
2017-10-23T00:55:18.360Z,9.80
2017-10-23T00:55:28.089Z,9.81
2017-10-23T00:55:36.225Z,9.81
2017-10-23T00:55:46.159Z,9.80
2017-10-23T00:55:54.100Z,9.81
2017-10-23T00:56:02.244Z,9.80
2017-10-23T00:56:10.383Z,9.80
2017-10-23T00:56:18.523Z,9.81
2017-10-23T00:56:26.662Z,9.80
2017-10-23T00:56:36.396Z,9.81
2017-10-23T00:56:44.549Z,9.81
2017-10-23T00:56:52.669Z,9.80
2017-10-23T00:57:00.801Z,9.80
2017-10-23T00:57:08.965Z,9.80
2017-10-23T00:57:17.075Z,9.79
2017-10-23T00:57:25.221Z,9.79
2017-10-23T00:57:33.389Z,9.80
2017-10-23T00:57:41.528Z,9.81
2017-10-23T00:57:49.624Z,9.79
2017-10-23T00:57:57.773Z,9.79
2017-10-23T00:58:05.903Z,9.79
2017-10-23T00:58:14.044Z,9.79
2017-10-23T00:58:22.199Z,9.79
2017-10-23T00:58:30.329Z,9.80
2017-10-23T00:58:40.060Z,9.79
2017-10-23T00:58:48.204Z,9.79
2017-10-23T00:58:56.329Z,9.80
2017-10-23T00:59:04.476Z,9.81
2017-10-23T00:59:12.613Z,9.80
2017-10-23T00:59:20.738Z,9.80
2017-10-23T00:59:30.479Z,9.79
2017-10-23T00:59:38.612Z,9.79
2017-10-23T00:59:46.764Z,9.80
2017-10-23T00:59:54.909Z,9.78
2017-10-23T01:00:03.032Z,9.78
2017-10-23T01:00:11.168Z,9.78
2017-10-23T01:00:19.310Z,9.78
2017-10-23T01:00:29.048Z,9.78
2017-10-23T01:00:37.179Z,9.78
2017-10-23T01:00:45.317Z,9.77
2017-10-23T01:00:53.464Z,9.79
2017-10-23T01:01:01.603Z,9.78
2017-10-23T01:01:11.324Z,9.78
2017-10-23T01:01:19.484Z,9.78
2017-10-23T01:01:27.609Z,9.78
2017-10-23T01:01:35.745Z,9.79
2017-10-23T01:01:43.880Z,9.77
2017-10-23T01:01:52.016Z,9.79
2017-10-23T01:02:00.155Z,9.79
2017-10-23T01:02:08.307Z,9.79
2017-10-23T01:02:16.454Z,9.79
2017-10-23T01:02:24.568Z,9.79
2017-10-23T01:02:32.700Z,9.78
2017-10-23T01:02:40.844Z,9.79
2017-10-23T01:02:48.984Z,9.79
2017-10-23T01:02:58.717Z,9.79
2017-10-23T01:03:06.857Z,9.79
2017-10-23T01:03:14.992Z,9.79
2017-10-23T01:03:23.135Z,9.80
2017-10-23T01:03:31.276Z,9.78
2017-10-23T01:03:39.404Z,9.78
2017-10-23T01:03:55.816Z,9.78
2017-10-23T01:04:04.701Z,9.79
2017-10-23T01:04:12.857Z,9.79
2017-10-23T01:04:20.991Z,9.78
2017-10-23T01:04:29.133Z,9.78
2017-10-23T01:04:37.252Z,9.80
2017-10-23T01:04:45.396Z,9.80
2017-10-23T01:04:53.742Z,9.78
2017-10-23T01:05:01.672Z,9.79
2017-10-23T01:05:09.809Z,9.79
2017-10-23T01:05:17.951Z,9.78
2017-10-23T01:05:26.080Z,9.79
2017-10-23T01:05:34.424Z,9.79
2017-10-23T01:05:46.330Z,9.79
2017-10-23T01:06:01.324Z,9.79
2017-10-23T01:06:09.424Z,9.78
2017-10-23T01:06:17.562Z,9.79
2017-10-23T01:06:25.692Z,9.79
2017-10-23T01:06:33.829Z,9.79
2017-10-23T01:06:41.988Z,9.80
2017-10-23T01:06:50.320Z,9.80
2017-10-23T01:06:58.248Z,9.80
2017-10-23T01:07:06.580Z,9.80
2017-10-23T01:07:14.549Z,9.79
2017-10-23T01:07:22.676Z,9.80
2017-10-23T01:07:30.796Z,9.80
2017-10-23T01:07:38.935Z,9.80
2017-10-23T01:07:47.084Z,9.80
2017-10-23T01:07:55.216Z,9.80
2017-10-23T01:08:03.336Z,9.80
2017-10-23T01:08:11.664Z,9.80
2017-10-23T01:08:19.617Z,9.80
2017-10-23T01:08:27.758Z,9.81
2017-10-23T01:08:35.898Z,9.81
2017-10-23T01:08:44.031Z,9.80
2017-10-23T01:08:52.168Z,9.81
2017-10-23T01:09:00.300Z,9.80
2017-10-23T01:09:08.516Z,9.80
2017-10-23T01:09:16.587Z,9.81
2017-10-23T01:09:24.724Z,9.81
2017-10-23T01:09:32.864Z,9.81
2017-10-23T01:09:40.985Z,9.83
2017-10-23T01:09:49.132Z,9.81
2017-10-23T01:09:57.262Z,9.81
2017-10-23T01:10:05.411Z,9.81
2017-10-23T01:10:13.545Z,9.82
2017-10-23T01:10:21.689Z,9.83
2017-10-23T01:10:29.823Z,9.81
2017-10-23T01:10:37.973Z,9.82
2017-10-23T01:10:46.089Z,9.82
2017-10-23T01:10:54.237Z,9.81
2017-10-23T01:11:02.377Z,9.83
2017-10-23T01:11:10.505Z,9.82
2017-10-23T01:11:18.644Z,9.83
2017-10-23T01:11:26.776Z,9.83
2017-10-23T01:11:34.916Z,9.85
2017-10-23T01:11:43.066Z,9.83
2017-10-23T01:11:51.197Z,9.83
2017-10-23T01:11:59.334Z,9.83
2017-10-23T01:12:07.466Z,9.85
2017-10-23T01:12:15.603Z,9.83
2017-10-23T01:12:25.356Z,9.83
2017-10-23T01:12:33.473Z,9.84
2017-10-23T01:12:41.611Z,9.84
2017-10-23T01:12:49.751Z,9.83
2017-10-23T01:12:57.889Z,9.82
2017-10-23T01:13:07.649Z,9.84
2017-10-23T01:13:21.042Z,9.83
2017-10-23T01:13:29.735Z,9.83
2017-10-23T01:13:37.881Z,9.83
2017-10-23T01:13:46.008Z,9.83
2017-10-23T01:13:54.164Z,9.84
2017-10-23T01:14:02.280Z,9.83
2017-10-23T01:14:10.416Z,9.83
2017-10-23T01:14:18.569Z,9.84
2017-10-23T01:14:26.708Z,9.83
2017-10-23T01:14:34.840Z,9.84
2017-10-23T01:14:42.979Z,9.85
2017-10-23T01:14:51.107Z,9.85
2017-10-23T01:14:59.243Z,9.85
2017-10-23T01:15:07.399Z,9.85
2017-10-23T01:15:15.521Z,9.85
2017-10-23T01:15:23.653Z,9.85
2017-10-23T01:15:32.084Z,9.85
2017-10-23T01:15:39.932Z,9.86
2017-10-23T01:15:48.072Z,9.85
2017-10-23T01:15:56.212Z,9.85
2017-10-23T01:16:04.349Z,9.85
2017-10-23T01:16:12.486Z,9.85
2017-10-23T01:16:20.620Z,9.84
2017-10-23T01:16:28.761Z,9.85
2017-10-23T01:16:36.904Z,9.85
2017-10-23T01:16:45.030Z,9.85
2017-10-23T01:16:53.184Z,9.85
2017-10-23T01:17:01.305Z,9.85
2017-10-23T01:17:09.451Z,9.85
2017-10-23T01:17:17.576Z,9.85
2017-10-23T01:17:25.748Z,9.85
2017-10-23T01:17:33.877Z,9.85
2017-10-23T01:17:42.005Z,9.85
2017-10-23T01:17:50.137Z,9.86
2017-10-23T01:17:58.277Z,9.85
2017-10-23T01:18:06.405Z,9.85
2017-10-23T01:18:14.558Z,9.86
2017-10-23T01:18:22.697Z,9.86
2017-10-23T01:18:30.837Z,9.86
2017-10-23T01:18:38.963Z,9.86
2017-10-23T01:18:47.092Z,9.85
2017-10-23T01:18:55.236Z,9.86
2017-10-23T01:19:03.360Z,9.86
2017-10-23T01:19:13.112Z,9.87
2017-10-23T01:19:21.247Z,9.87
2017-10-23T01:19:29.400Z,9.87
2017-10-23T01:19:37.538Z,9.87
2017-10-23T01:19:45.668Z,9.86
2017-10-23T01:19:53.796Z,9.86
2017-10-23T01:20:01.920Z,9.86
2017-10-23T01:20:10.068Z,9.85
2017-10-23T01:20:18.210Z,9.86
2017-10-23T01:20:27.955Z,9.86
2017-10-23T01:20:36.084Z,9.85
2017-10-23T01:20:45.825Z,9.87
2017-10-23T01:20:53.969Z,9.91
2017-10-23T01:21:02.097Z,9.87
2017-10-23T01:21:10.249Z,9.86
2017-10-23T01:21:19.964Z,9.86
2017-10-23T01:21:32.912Z,9.87
2017-10-23T01:21:41.045Z,9.86
2017-10-23T01:21:49.188Z,9.86
2017-10-23T01:21:58.920Z,9.86
2017-10-23T01:22:07.060Z,9.86
2017-10-23T01:22:15.196Z,9.87
2017-10-23T01:22:23.332Z,9.86
2017-10-23T01:22:31.509Z,9.86
2017-10-23T01:22:39.604Z,9.86
2017-10-23T01:22:49.344Z,9.86
2017-10-23T01:22:57.480Z,9.86
2017-10-23T01:23:07.224Z,9.86
2017-10-23T01:23:15.360Z,9.87
2017-10-23T01:23:23.485Z,9.87
2017-10-23T01:23:31.628Z,9.86
2017-10-23T01:23:41.373Z,9.86
2017-10-23T01:23:51.103Z,9.87
2017-10-23T01:24:00.852Z,9.86
2017-10-23T01:24:09.000Z,9.88
2017-10-23T01:24:17.122Z,9.87
2017-10-23T01:24:25.273Z,9.87
2017-10-23T01:24:33.388Z,9.86
2017-10-23T01:24:41.547Z,9.87
2017-10-23T01:24:49.672Z,9.87
2017-10-23T01:24:59.419Z,9.87
2017-10-23T01:25:09.147Z,9.87
2017-10-23T01:25:23.040Z,9.86
2017-10-23T01:25:32.852Z,9.87
2017-10-23T01:25:42.602Z,9.86
2017-10-23T01:25:52.345Z,9.87
2017-10-23T01:26:00.484Z,9.87
2017-10-23T01:26:08.595Z,9.87
2017-10-23T01:26:16.739Z,9.87
2017-10-23T01:26:25.089Z,9.86
2017-10-23T01:26:34.611Z,9.86
2017-10-23T01:26:44.360Z,9.87
2017-10-23T01:26:52.484Z,9.87
2017-10-23T01:27:00.636Z,9.86
2017-10-23T01:27:08.768Z,9.86
2017-10-23T01:27:16.903Z,9.86
2017-10-23T01:27:25.037Z,9.86
2017-10-23T01:27:33.197Z,9.86
2017-10-23T01:27:41.318Z,9.87
2017-10-23T01:27:49.461Z,9.86
2017-10-23T01:27:57.600Z,9.86
2017-10-23T01:28:05.744Z,9.86
2017-10-23T01:28:15.482Z,9.86
2017-10-23T01:28:23.609Z,9.86
2017-10-23T01:28:31.752Z,9.86
2017-10-23T01:28:41.480Z,9.86
2017-10-23T01:28:54.408Z,9.86
2017-10-23T01:29:04.160Z,9.85
2017-10-23T01:29:17.041Z,9.87
2017-10-23T01:29:27.868Z,9.86
2017-10-23T01:29:35.984Z,9.86
2017-10-23T01:29:44.141Z,9.86
2017-10-23T01:29:53.876Z,9.87
2017-10-23T01:30:02.001Z,9.86
2017-10-23T01:30:10.136Z,9.86
2017-10-23T01:30:18.286Z,9.87
2017-10-23T01:30:26.421Z,9.86
2017-10-23T01:30:36.188Z,9.87
2017-10-23T01:30:44.304Z,9.87
2017-10-23T01:30:52.430Z,9.88
2017-10-23T01:31:02.172Z,9.87
2017-10-23T01:31:10.317Z,9.87
2017-10-23T01:31:18.439Z,9.87
2017-10-23T01:31:26.589Z,9.88
2017-10-23T01:31:36.312Z,9.88
2017-10-23T01:31:44.448Z,9.89
2017-10-23T01:31:52.584Z,9.88
2017-10-23T01:32:05.489Z,9.89
2017-10-23T01:32:13.088Z,9.88
2017-10-23T01:32:21.232Z,9.88
2017-10-23T01:32:30.976Z,9.89
2017-10-23T01:32:39.142Z,9.89
2017-10-23T01:32:47.243Z,9.89
2017-10-23T01:32:56.981Z,9.89
2017-10-23T01:33:05.118Z,9.89
2017-10-23T01:33:13.261Z,9.89
2017-10-23T01:33:21.396Z,9.89
2017-10-23T01:33:29.735Z,9.88
2017-10-23T01:33:42.472Z,9.88
2017-10-23T01:33:52.201Z,9.89
2017-10-23T01:34:00.357Z,9.89
2017-10-23T01:34:08.490Z,9.89
2017-10-23T01:34:16.637Z,9.88
2017-10-23T01:34:24.751Z,9.88
2017-10-23T01:34:32.893Z,9.88
2017-10-23T01:34:41.038Z,9.88
2017-10-23T01:34:50.960Z,9.87
2017-10-23T01:34:58.903Z,9.88
2017-10-23T01:35:07.045Z,9.88
2017-10-23T01:35:15.184Z,9.88
2017-10-23T01:35:23.321Z,9.89
2017-10-23T01:35:31.468Z,9.89
2017-10-23T01:35:39.587Z,9.90
2017-10-23T01:35:47.731Z,9.89
2017-10-23T01:35:55.871Z,9.89
2017-10-23T01:36:04.003Z,9.89
2017-10-23T01:36:12.136Z,9.89
2017-10-23T01:36:20.279Z,9.90
2017-10-23T01:36:28.420Z,9.90
2017-10-23T01:36:38.156Z,9.89
2017-10-23T01:36:46.293Z,9.89
2017-10-23T01:36:54.436Z,9.88
2017-10-23T01:37:02.763Z,9.90
2017-10-23T01:37:10.712Z,9.89
2017-10-23T01:37:20.462Z,9.90
2017-10-23T01:37:28.588Z,9.90
2017-10-23T01:37:36.736Z,9.89
2017-10-23T01:37:44.878Z,9.89
2017-10-23T01:37:57.792Z,9.90
2017-10-23T01:38:05.933Z,9.88
2017-10-23T01:38:15.673Z,9.90
2017-10-23T01:38:23.808Z,9.90
2017-10-23T01:38:31.935Z,9.91
2017-10-23T01:38:40.072Z,9.88
2017-10-23T01:38:48.212Z,9.89
2017-10-23T01:38:56.364Z,9.89
2017-10-23T01:39:04.500Z,9.90
2017-10-23T01:39:12.624Z,9.89
2017-10-23T01:39:20.773Z,9.90
2017-10-23T01:39:28.905Z,9.88
2017-10-23T01:39:37.044Z,9.90
2017-10-23T01:39:45.183Z,9.89
2017-10-23T01:39:53.329Z,9.91
2017-10-23T01:40:01.447Z,9.90
2017-10-23T01:40:09.592Z,9.90
2017-10-23T01:40:19.333Z,9.90
2017-10-23T01:40:27.462Z,9.89
2017-10-23T01:40:35.611Z,9.88
2017-10-23T01:40:45.340Z,9.90
2017-10-23T01:40:53.472Z,9.90
2017-10-23T01:41:03.207Z,9.91
2017-10-23T01:41:11.353Z,9.90
2017-10-23T01:41:19.480Z,9.90
2017-10-23T01:41:27.648Z,9.90
2017-10-23T01:41:35.774Z,9.90
2017-10-23T01:41:43.895Z,9.90
2017-10-23T01:42:11.600Z,9.90
2017-10-23T01:42:19.524Z,9.91
2017-10-23T01:42:27.664Z,9.90
2017-10-23T01:42:35.785Z,9.89
2017-10-23T01:42:43.933Z,9.90
2017-10-23T01:42:52.076Z,9.89
2017-10-23T01:43:00.205Z,9.89
2017-10-23T01:43:08.343Z,9.89
2017-10-23T01:43:18.074Z,9.90
2017-10-23T01:43:26.220Z,9.90
2017-10-23T01:43:35.964Z,9.90
2017-10-23T01:43:44.084Z,9.90
2017-10-23T01:43:52.243Z,9.90
2017-10-23T01:44:00.370Z,9.89
2017-10-23T01:44:08.497Z,9.89
2017-10-23T01:44:18.255Z,9.90
2017-10-23T01:44:27.989Z,9.89
2017-10-23T01:44:36.132Z,9.89
2017-10-23T01:44:44.256Z,9.89
2017-10-23T01:44:52.385Z,9.90
2017-10-23T01:45:00.540Z,9.89
2017-10-23T01:45:10.263Z,9.89
2017-10-23T01:45:20.012Z,9.89
2017-10-23T01:45:28.156Z,9.90
2017-10-23T01:45:36.284Z,9.90
2017-10-23T01:45:44.416Z,9.90
2017-10-23T01:45:52.553Z,9.90
2017-10-23T01:46:00.681Z,9.90
2017-10-23T01:46:08.836Z,9.91
2017-10-23T01:46:16.971Z,9.91
2017-10-23T01:46:25.108Z,9.90
2017-10-23T01:46:33.233Z,9.90
2017-10-23T01:46:41.372Z,9.90
2017-10-23T01:46:49.513Z,9.91
2017-10-23T01:46:57.664Z,9.91
2017-10-23T01:47:05.792Z,9.91
2017-10-23T01:47:13.925Z,9.91
2017-10-23T01:47:23.678Z,9.91
2017-10-23T01:47:31.804Z,9.91
2017-10-23T01:47:41.556Z,9.92
2017-10-23T01:47:54.513Z,9.92
2017-10-23T01:48:02.624Z,9.91
2017-10-23T01:48:10.748Z,9.91
2017-10-23T01:48:24.916Z,9.91
2017-10-23T01:48:33.017Z,9.91
2017-10-23T01:48:41.164Z,9.91
2017-10-23T01:48:49.291Z,9.92
2017-10-23T01:48:57.434Z,9.93
2017-10-23T01:49:05.565Z,9.92
2017-10-23T01:49:13.696Z,9.92
2017-10-23T01:49:21.844Z,9.92
2017-10-23T01:49:29.979Z,9.93
2017-10-23T01:49:38.121Z,9.92
2017-10-23T01:49:46.243Z,9.94
2017-10-23T01:49:54.388Z,9.93
2017-10-23T01:50:02.529Z,9.93
2017-10-23T01:50:10.658Z,9.93
2017-10-23T01:50:18.805Z,9.94
2017-10-23T01:50:26.936Z,9.93
2017-10-23T01:50:35.081Z,9.91
2017-10-23T01:50:43.207Z,9.92
2017-10-23T01:50:51.352Z,9.92
2017-10-23T01:50:59.489Z,9.93
2017-10-23T01:51:07.649Z,9.93
2017-10-23T01:51:15.773Z,9.94
2017-10-23T01:51:23.909Z,9.94
2017-10-23T01:51:32.032Z,9.93
2017-10-23T01:51:40.173Z,9.94
2017-10-23T01:51:48.308Z,9.94
2017-10-23T01:51:56.457Z,9.94